sensor_id;sensor_type;location;lat;lon;timestamp;temperature;humidity
4187;DHT22;2107;52.306;10.484;2023-11-18T00:00:47;2.60;99.90
4187;DHT22;2107;52.306;10.484;2023-11-18T00:03:14;2.50;99.90
4187;DHT22;2107;52.306;10.484;2023-11-18T00:05:42;2.50;99.90
4187;DHT22;2107;52.306;10.484;2023-11-18T00:08:09;2.30;99.90
4187;DHT22;2107;52.306;10.484;2023-11-18T00:10:37;2.20;99.90
4187;DHT22;2107;52.306;10.484;2023-11-18T00:13:04;2.10;99.90
4187;DHT22;2107;52.306;10.484;2023-11-18T00:15:31;2.10;99.90
4187;DHT22;2107;52.306;10.484;2023-11-18T00:18:00;2.10;99.90
4187;DHT22;2107;52.306;10.484;2023-11-18T00:20:27;2.10;99.90
4187;DHT22;2107;52.306;10.484;2023-11-18T00:22:57;2.10;99.90
4187;DHT22;2107;52.306;10.484;2023-11-18T00:25:24;2.10;99.90
4187;DHT22;2107;52.306;10.484;2023-11-18T00:27:51;2.00;99.90
4187;DHT22;2107;52.306;10.484;2023-11-18T00:30:18;2.10;99.90
4187;DHT22;2107;52.306;10.484;2023-11-18T00:32:45;2.10;99.90
4187;DHT22;2107;52.306;10.484;2023-11-18T00:35:12;2.30;99.90
4187;DHT22;2107;52.306;10.484;2023-11-18T00:37:38;2.20;99.90
4187;DHT22;2107;52.306;10.484;2023-11-18T00:40:08;2.20;99.90
4187;DHT22;2107;52.306;10.484;2023-11-18T00:42:37;2.20;99.90
4187;DHT22;2107;52.306;10.484;2023-11-18T00:45:04;2.00;99.90
4187;DHT22;2107;52.306;10.484;2023-11-18T00:47:31;1.90;99.90
4187;DHT22;2107;52.306;10.484;2023-11-18T00:49:58;1.90;99.90
4187;DHT22;2107;52.306;10.484;2023-11-18T00:52:27;1.90;99.90
4187;DHT22;2107;52.306;10.484;2023-11-18T00:54:54;1.90;99.90
4187;DHT22;2107;52.306;10.484;2023-11-18T00:57:22;2.10;99.90
4187;DHT22;2107;52.306;10.484;2023-11-18T00:59:49;2.10;99.90
4187;DHT22;2107;52.306;10.484;2023-11-18T01:02:16;2.20;99.90
4187;DHT22;2107;52.306;10.484;2023-11-18T01:04:43;2.20;99.90
4187;DHT22;2107;52.306;10.484;2023-11-18T01:07:11;2.10;99.90
4187;DHT22;2107;52.306;10.484;2023-11-18T01:09:38;2.00;99.90
4187;DHT22;2107;52.306;10.484;2023-11-18T01:12:06;1.80;99.90
4187;DHT22;2107;52.306;10.484;2023-11-18T01:14:37;1.60;99.90
4187;DHT22;2107;52.306;10.484;2023-11-18T01:17:04;1.50;99.90
4187;DHT22;2107;52.306;10.484;2023-11-18T01:19:31;1.40;99.90
4187;DHT22;2107;52.306;10.484;2023-11-18T01:21:59;1.30;99.90
4187;DHT22;2107;52.306;10.484;2023-11-18T01:24:26;1.20;99.90
4187;DHT22;2107;52.306;10.484;2023-11-18T01:26:53;1.10;99.90
4187;DHT22;2107;52.306;10.484;2023-11-18T01:29:20;1.00;99.90
4187;DHT22;2107;52.306;10.484;2023-11-18T01:31:49;1.00;99.90
4187;DHT22;2107;52.306;10.484;2023-11-18T01:34:16;1.00;99.90
4187;DHT22;2107;52.306;10.484;2023-11-18T01:36:44;1.00;99.90
4187;DHT22;2107;52.306;10.484;2023-11-18T01:39:11;1.20;99.90
4187;DHT22;2107;52.306;10.484;2023-11-18T01:41:38;1.30;99.90
4187;DHT22;2107;52.306;10.484;2023-11-18T01:44:05;1.40;99.90
4187;DHT22;2107;52.306;10.484;2023-11-18T01:46:33;1.50;99.90
4187;DHT22;2107;52.306;10.484;2023-11-18T01:49:03;1.50;99.90
4187;DHT22;2107;52.306;10.484;2023-11-18T01:51:30;1.60;99.90
4187;DHT22;2107;52.306;10.484;2023-11-18T01:53:59;1.80;99.90
4187;DHT22;2107;52.306;10.484;2023-11-18T01:56:27;1.90;99.90
4187;DHT22;2107;52.306;10.484;2023-11-18T01:58:54;2.00;99.90
4187;DHT22;2107;52.306;10.484;2023-11-18T02:01:25;2.00;99.90
4187;DHT22;2107;52.306;10.484;2023-11-18T02:03:53;2.20;99.90
4187;DHT22;2107;52.306;10.484;2023-11-18T02:06:21;2.30;99.90
4187;DHT22;2107;52.306;10.484;2023-11-18T02:08:48;2.50;99.90
4187;DHT22;2107;52.306;10.484;2023-11-18T02:11:23;2.60;99.90
4187;DHT22;2107;52.306;10.484;2023-11-18T02:13:56;2.70;99.90
4187;DHT22;2107;52.306;10.484;2023-11-18T02:16:25;2.70;99.90
4187;DHT22;2107;52.306;10.484;2023-11-18T02:18:53;2.80;99.90
4187;DHT22;2107;52.306;10.484;2023-11-18T02:21:22;2.60;99.90
4187;DHT22;2107;52.306;10.484;2023-11-18T02:23:50;2.70;99.90
4187;DHT22;2107;52.306;10.484;2023-11-18T02:26:22;2.80;99.90
4187;DHT22;2107;52.306;10.484;2023-11-18T02:28:49;2.70;99.90
4187;DHT22;2107;52.306;10.484;2023-11-18T02:31:21;2.70;99.90
4187;DHT22;2107;52.306;10.484;2023-11-18T02:33:56;2.70;99.90
4187;DHT22;2107;52.306;10.484;2023-11-18T02:36:32;2.80;99.90
4187;DHT22;2107;52.306;10.484;2023-11-18T02:39:04;2.90;99.90
4187;DHT22;2107;52.306;10.484;2023-11-18T02:41:35;2.90;99.90
4187;DHT22;2107;52.306;10.484;2023-11-18T02:44:03;3.00;99.90
4187;DHT22;2107;52.306;10.484;2023-11-18T02:46:34;3.10;99.90
4187;DHT22;2107;52.306;10.484;2023-11-18T02:49:01;3.10;99.90
4187;DHT22;2107;52.306;10.484;2023-11-18T02:51:29;3.20;99.90
4187;DHT22;2107;52.306;10.484;2023-11-18T02:53:56;3.20;99.90
4187;DHT22;2107;52.306;10.484;2023-11-18T02:56:23;3.10;99.90
4187;DHT22;2107;52.306;10.484;2023-11-18T02:58:51;3.00;99.90
4187;DHT22;2107;52.306;10.484;2023-11-18T03:01:18;3.10;99.90
4187;DHT22;2107;52.306;10.484;2023-11-18T03:03:45;3.20;99.90
4187;DHT22;2107;52.306;10.484;2023-11-18T03:06:12;3.20;99.90
4187;DHT22;2107;52.306;10.484;2023-11-18T03:08:39;3.30;99.90
4187;DHT22;2107;52.306;10.484;2023-11-18T03:11:07;3.10;99.90
4187;DHT22;2107;52.306;10.484;2023-11-18T03:13:35;3.20;99.90
4187;DHT22;2107;52.306;10.484;2023-11-18T03:16:06;3.30;99.90
4187;DHT22;2107;52.306;10.484;2023-11-18T03:18:37;3.30;99.90
4187;DHT22;2107;52.306;10.484;2023-11-18T03:21:06;3.20;99.90
4187;DHT22;2107;52.306;10.484;2023-11-18T03:23:33;3.30;99.90
4187;DHT22;2107;52.306;10.484;2023-11-18T03:26:00;3.30;99.90
4187;DHT22;2107;52.306;10.484;2023-11-18T03:28:26;3.40;99.90
4187;DHT22;2107;52.306;10.484;2023-11-18T03:30:53;3.40;99.90
4187;DHT22;2107;52.306;10.484;2023-11-18T03:33:21;3.30;99.90
4187;DHT22;2107;52.306;10.484;2023-11-18T03:35:48;3.20;99.90
4187;DHT22;2107;52.306;10.484;2023-11-18T03:38:15;3.30;99.90
4187;DHT22;2107;52.306;10.484;2023-11-18T03:40:43;3.40;99.90
4187;DHT22;2107;52.306;10.484;2023-11-18T03:43:10;3.40;99.90
4187;DHT22;2107;52.306;10.484;2023-11-18T03:45:38;3.40;99.90
4187;DHT22;2107;52.306;10.484;2023-11-18T03:48:05;3.40;99.90
4187;DHT22;2107;52.306;10.484;2023-11-18T03:50:34;3.50;99.90
4187;DHT22;2107;52.306;10.484;2023-11-18T03:53:01;3.60;99.90
4187;DHT22;2107;52.306;10.484;2023-11-18T03:55:28;3.60;99.90
4187;DHT22;2107;52.306;10.484;2023-11-18T03:57:56;3.50;99.90
4187;DHT22;2107;52.306;10.484;2023-11-18T04:00:23;3.30;99.90
4187;DHT22;2107;52.306;10.484;2023-11-18T04:02:55;3.20;99.90
4187;DHT22;2107;52.306;10.484;2023-11-18T04:05:22;3.20;99.90
4187;DHT22;2107;52.306;10.484;2023-11-18T04:07:50;3.20;99.90
4187;DHT22;2107;52.306;10.484;2023-11-18T04:10:17;3.20;99.90
4187;DHT22;2107;52.306;10.484;2023-11-18T04:12:45;3.30;99.90
4187;DHT22;2107;52.306;10.484;2023-11-18T04:15:12;3.40;99.90
4187;DHT22;2107;52.306;10.484;2023-11-18T04:17:39;3.50;99.90
4187;DHT22;2107;52.306;10.484;2023-11-18T04:20:09;3.60;99.90
4187;DHT22;2107;52.306;10.484;2023-11-18T04:22:38;3.60;99.90
4187;DHT22;2107;52.306;10.484;2023-11-18T04:25:07;3.50;99.90
4187;DHT22;2107;52.306;10.484;2023-11-18T04:27:34;3.50;99.90
4187;DHT22;2107;52.306;10.484;2023-11-18T04:30:01;3.40;99.90
4187;DHT22;2107;52.306;10.484;2023-11-18T04:32:29;3.20;99.90
4187;DHT22;2107;52.306;10.484;2023-11-18T04:34:58;3.00;99.90
4187;DHT22;2107;52.306;10.484;2023-11-18T04:37:25;2.80;99.90
4187;DHT22;2107;52.306;10.484;2023-11-18T04:39:52;2.70;99.90
4187;DHT22;2107;52.306;10.484;2023-11-18T04:42:22;2.60;99.90
4187;DHT22;2107;52.306;10.484;2023-11-18T04:44:49;2.50;99.90
4187;DHT22;2107;52.306;10.484;2023-11-18T04:47:15;2.40;99.90
4187;DHT22;2107;52.306;10.484;2023-11-18T04:49:44;2.30;99.90
4187;DHT22;2107;52.306;10.484;2023-11-18T04:52:10;2.30;99.90
4187;DHT22;2107;52.306;10.484;2023-11-18T04:54:37;2.30;99.90
4187;DHT22;2107;52.306;10.484;2023-11-18T04:57:04;2.20;99.90
4187;DHT22;2107;52.306;10.484;2023-11-18T04:59:35;2.00;99.90
4187;DHT22;2107;52.306;10.484;2023-11-18T05:02:02;1.90;99.90
4187;DHT22;2107;52.306;10.484;2023-11-18T05:04:29;1.90;99.90
4187;DHT22;2107;52.306;10.484;2023-11-18T05:06:56;1.90;99.90
4187;DHT22;2107;52.306;10.484;2023-11-18T05:09:23;2.00;99.90
4187;DHT22;2107;52.306;10.484;2023-11-18T05:11:49;2.00;99.90
4187;DHT22;2107;52.306;10.484;2023-11-18T05:14:18;1.90;99.90
4187;DHT22;2107;52.306;10.484;2023-11-18T05:16:47;1.90;99.90
4187;DHT22;2107;52.306;10.484;2023-11-18T05:19:13;1.90;99.90
4187;DHT22;2107;52.306;10.484;2023-11-18T05:21:42;1.90;99.90
4187;DHT22;2107;52.306;10.484;2023-11-18T05:24:09;1.70;99.90
4187;DHT22;2107;52.306;10.484;2023-11-18T05:26:36;1.70;99.90
4187;DHT22;2107;52.306;10.484;2023-11-18T05:29:03;1.70;99.90
4187;DHT22;2107;52.306;10.484;2023-11-18T05:31:31;1.80;99.90
4187;DHT22;2107;52.306;10.484;2023-11-18T05:34:00;1.80;99.90
4187;DHT22;2107;52.306;10.484;2023-11-18T05:36:27;1.90;99.90
4187;DHT22;2107;52.306;10.484;2023-11-18T05:39:02;2.00;99.90
4187;DHT22;2107;52.306;10.484;2023-11-18T05:41:30;2.00;99.90
4187;DHT22;2107;52.306;10.484;2023-11-18T05:43:57;2.00;99.90
4187;DHT22;2107;52.306;10.484;2023-11-18T05:46:24;2.10;99.90
4187;DHT22;2107;52.306;10.484;2023-11-18T05:48:55;2.30;99.90
4187;DHT22;2107;52.306;10.484;2023-11-18T05:51:25;2.30;99.90
4187;DHT22;2107;52.306;10.484;2023-11-18T05:53:54;2.40;99.90
4187;DHT22;2107;52.306;10.484;2023-11-18T05:56:21;2.40;99.90
4187;DHT22;2107;52.306;10.484;2023-11-18T05:58:48;2.40;99.90
4187;DHT22;2107;52.306;10.484;2023-11-18T06:01:15;2.40;99.90
4187;DHT22;2107;52.306;10.484;2023-11-18T06:03:43;2.50;99.90
4187;DHT22;2107;52.306;10.484;2023-11-18T06:06:12;2.50;99.90
4187;DHT22;2107;52.306;10.484;2023-11-18T06:08:43;2.60;99.90
4187;DHT22;2107;52.306;10.484;2023-11-18T06:11:10;2.60;99.90
4187;DHT22;2107;52.306;10.484;2023-11-18T06:13:41;2.40;99.90
4187;DHT22;2107;52.306;10.484;2023-11-18T06:16:11;2.20;99.90
4187;DHT22;2107;52.306;10.484;2023-11-18T06:18:40;2.30;99.90
4187;DHT22;2107;52.306;10.484;2023-11-18T06:21:07;2.40;99.90
4187;DHT22;2107;52.306;10.484;2023-11-18T06:23:36;2.60;99.90
4187;DHT22;2107;52.306;10.484;2023-11-18T06:26:05;2.70;99.90
4187;DHT22;2107;52.306;10.484;2023-11-18T06:28:32;2.70;99.90
4187;DHT22;2107;52.306;10.484;2023-11-18T06:30:59;2.60;99.90
4187;DHT22;2107;52.306;10.484;2023-11-18T06:33:26;2.60;99.90
4187;DHT22;2107;52.306;10.484;2023-11-18T06:35:53;2.70;99.90
4187;DHT22;2107;52.306;10.484;2023-11-18T06:38:21;2.80;99.90
4187;DHT22;2107;52.306;10.484;2023-11-18T06:40:50;2.90;99.90
4187;DHT22;2107;52.306;10.484;2023-11-18T06:43:20;2.90;99.90
4187;DHT22;2107;52.306;10.484;2023-11-18T06:45:47;2.90;99.90
4187;DHT22;2107;52.306;10.484;2023-11-18T06:48:14;2.90;99.90
4187;DHT22;2107;52.306;10.484;2023-11-18T06:50:46;3.00;99.90
4187;DHT22;2107;52.306;10.484;2023-11-18T06:53:13;2.90;99.90
4187;DHT22;2107;52.306;10.484;2023-11-18T06:55:41;2.90;99.90
4187;DHT22;2107;52.306;10.484;2023-11-18T06:58:08;3.00;99.90
4187;DHT22;2107;52.306;10.484;2023-11-18T07:00:37;2.90;99.90
4187;DHT22;2107;52.306;10.484;2023-11-18T07:03:04;2.80;99.90
4187;DHT22;2107;52.306;10.484;2023-11-18T07:05:32;2.60;99.90
4187;DHT22;2107;52.306;10.484;2023-11-18T07:07:59;2.50;99.90
4187;DHT22;2107;52.306;10.484;2023-11-18T07:10:25;2.40;99.90
4187;DHT22;2107;52.306;10.484;2023-11-18T07:12:53;2.40;99.90
4187;DHT22;2107;52.306;10.484;2023-11-18T07:15:20;2.40;99.90
4187;DHT22;2107;52.306;10.484;2023-11-18T07:17:49;2.60;99.90
4187;DHT22;2107;52.306;10.484;2023-11-18T07:20:16;2.40;99.90
4187;DHT22;2107;52.306;10.484;2023-11-18T07:22:43;2.50;99.90
4187;DHT22;2107;52.306;10.484;2023-11-18T07:25:10;2.60;99.90
4187;DHT22;2107;52.306;10.484;2023-11-18T07:27:38;2.70;99.90
4187;DHT22;2107;52.306;10.484;2023-11-18T07:30:06;2.70;99.90
4187;DHT22;2107;52.306;10.484;2023-11-18T07:32:36;2.70;99.90
4187;DHT22;2107;52.306;10.484;2023-11-18T07:35:06;2.70;99.90
4187;DHT22;2107;52.306;10.484;2023-11-18T07:37:34;2.70;99.90
4187;DHT22;2107;52.306;10.484;2023-11-18T07:40:03;2.80;99.90
4187;DHT22;2107;52.306;10.484;2023-11-18T07:42:31;2.90;99.90
4187;DHT22;2107;52.306;10.484;2023-11-18T07:45:00;3.00;99.90
4187;DHT22;2107;52.306;10.484;2023-11-18T07:47:29;3.00;99.90
4187;DHT22;2107;52.306;10.484;2023-11-18T07:49:57;3.10;99.90
4187;DHT22;2107;52.306;10.484;2023-11-18T07:52:26;3.00;99.90
4187;DHT22;2107;52.306;10.484;2023-11-18T07:54:54;3.10;99.90
4187;DHT22;2107;52.306;10.484;2023-11-18T07:57:21;3.00;99.90
4187;DHT22;2107;52.306;10.484;2023-11-18T07:59:49;3.00;99.90
4187;DHT22;2107;52.306;10.484;2023-11-18T08:02:16;3.10;99.90
4187;DHT22;2107;52.306;10.484;2023-11-18T08:04:44;3.40;99.90
4187;DHT22;2107;52.306;10.484;2023-11-18T08:07:11;3.50;99.90
4187;DHT22;2107;52.306;10.484;2023-11-18T08:09:40;3.80;99.90
4187;DHT22;2107;52.306;10.484;2023-11-18T08:12:08;3.50;99.90
4187;DHT22;2107;52.306;10.484;2023-11-18T08:14:35;3.50;99.90
4187;DHT22;2107;52.306;10.484;2023-11-18T08:17:02;3.50;99.90
4187;DHT22;2107;52.306;10.484;2023-11-18T08:19:31;3.60;99.90
4187;DHT22;2107;52.306;10.484;2023-11-18T08:21:59;3.70;99.90
4187;DHT22;2107;52.306;10.484;2023-11-18T08:24:26;3.70;99.90
4187;DHT22;2107;52.306;10.484;2023-11-18T08:26:56;3.70;99.90
4187;DHT22;2107;52.306;10.484;2023-11-18T08:29:23;3.80;99.90
4187;DHT22;2107;52.306;10.484;2023-11-18T08:31:53;3.80;99.90
4187;DHT22;2107;52.306;10.484;2023-11-18T08:34:20;3.90;99.90
4187;DHT22;2107;52.306;10.484;2023-11-18T08:36:47;3.90;99.90
4187;DHT22;2107;52.306;10.484;2023-11-18T08:39:17;4.00;99.90
4187;DHT22;2107;52.306;10.484;2023-11-18T08:41:46;4.00;99.90
4187;DHT22;2107;52.306;10.484;2023-11-18T08:44:17;4.00;99.90
4187;DHT22;2107;52.306;10.484;2023-11-18T08:46:45;4.20;99.90
4187;DHT22;2107;52.306;10.484;2023-11-18T08:49:12;4.20;99.90
4187;DHT22;2107;52.306;10.484;2023-11-18T08:51:40;4.30;99.90
4187;DHT22;2107;52.306;10.484;2023-11-18T08:54:07;4.40;99.90
4187;DHT22;2107;52.306;10.484;2023-11-18T08:56:48;4.50;99.90
4187;DHT22;2107;52.306;10.484;2023-11-18T08:59:18;4.50;99.90
4187;DHT22;2107;52.306;10.484;2023-11-18T09:01:50;4.60;99.90
4187;DHT22;2107;52.306;10.484;2023-11-18T09:04:21;4.80;99.90
4187;DHT22;2107;52.306;10.484;2023-11-18T09:06:49;4.70;99.90
4187;DHT22;2107;52.306;10.484;2023-11-18T09:09:17;4.80;99.90
4187;DHT22;2107;52.306;10.484;2023-11-18T09:11:52;4.80;99.90
4187;DHT22;2107;52.306;10.484;2023-11-18T09:14:21;4.90;99.90
4187;DHT22;2107;52.306;10.484;2023-11-18T09:16:50;4.90;99.90
4187;DHT22;2107;52.306;10.484;2023-11-18T09:19:17;5.00;99.90
4187;DHT22;2107;52.306;10.484;2023-11-18T09:21:47;4.90;99.90
4187;DHT22;2107;52.306;10.484;2023-11-18T09:24:14;4.90;99.90
4187;DHT22;2107;52.306;10.484;2023-11-18T09:26:45;5.10;99.90
4187;DHT22;2107;52.306;10.484;2023-11-18T09:29:13;5.10;99.90
4187;DHT22;2107;52.306;10.484;2023-11-18T09:31:46;5.20;99.90
4187;DHT22;2107;52.306;10.484;2023-11-18T09:34:14;5.30;99.90
4187;DHT22;2107;52.306;10.484;2023-11-18T09:36:42;5.40;99.90
4187;DHT22;2107;52.306;10.484;2023-11-18T09:39:10;5.40;99.90
4187;DHT22;2107;52.306;10.484;2023-11-18T09:41:54;5.60;99.90
4187;DHT22;2107;52.306;10.484;2023-11-18T09:44:21;5.50;99.90
4187;DHT22;2107;52.306;10.484;2023-11-18T09:46:57;5.40;99.90
4187;DHT22;2107;52.306;10.484;2023-11-18T09:49:33;5.50;99.90
4187;DHT22;2107;52.306;10.484;2023-11-18T09:52:06;5.60;99.90
4187;DHT22;2107;52.306;10.484;2023-11-18T09:54:39;5.70;99.90
4187;DHT22;2107;52.306;10.484;2023-11-18T09:57:11;5.80;99.90
4187;DHT22;2107;52.306;10.484;2023-11-18T09:59:46;6.00;99.90
4187;DHT22;2107;52.306;10.484;2023-11-18T10:02:22;6.30;99.90
4187;DHT22;2107;52.306;10.484;2023-11-18T10:04:52;6.20;99.90
4187;DHT22;2107;52.306;10.484;2023-11-18T10:07:24;6.50;99.90
4187;DHT22;2107;52.306;10.484;2023-11-18T10:09:54;6.80;99.90
4187;DHT22;2107;52.306;10.484;2023-11-18T10:12:23;6.80;99.90
4187;DHT22;2107;52.306;10.484;2023-11-18T10:14:52;7.00;99.90
4187;DHT22;2107;52.306;10.484;2023-11-18T10:17:21;7.10;99.90
4187;DHT22;2107;52.306;10.484;2023-11-18T10:19:53;7.20;99.90
4187;DHT22;2107;52.306;10.484;2023-11-18T10:22:23;6.80;99.90
4187;DHT22;2107;52.306;10.484;2023-11-18T10:24:52;6.80;99.90
4187;DHT22;2107;52.306;10.484;2023-11-18T10:27:21;6.90;99.90
4187;DHT22;2107;52.306;10.484;2023-11-18T10:29:51;7.30;99.90
4187;DHT22;2107;52.306;10.484;2023-11-18T10:32:23;6.70;99.90
4187;DHT22;2107;52.306;10.484;2023-11-18T10:34:54;6.70;99.90
4187;DHT22;2107;52.306;10.484;2023-11-18T10:37:22;6.70;99.90
4187;DHT22;2107;52.306;10.484;2023-11-18T10:39:49;6.20;99.90
4187;DHT22;2107;52.306;10.484;2023-11-18T10:42:17;6.30;99.90
4187;DHT22;2107;52.306;10.484;2023-11-18T10:44:57;6.60;99.90
4187;DHT22;2107;52.306;10.484;2023-11-18T10:47:26;6.60;99.90
4187;DHT22;2107;52.306;10.484;2023-11-18T10:49:53;7.00;99.90
4187;DHT22;2107;52.306;10.484;2023-11-18T10:52:22;7.20;99.90
4187;DHT22;2107;52.306;10.484;2023-11-18T10:54:52;7.10;99.90
4187;DHT22;2107;52.306;10.484;2023-11-18T10:57:20;7.10;99.90
4187;DHT22;2107;52.306;10.484;2023-11-18T11:00:00;7.10;99.90
4187;DHT22;2107;52.306;10.484;2023-11-18T11:02:31;7.20;99.90
4187;DHT22;2107;52.306;10.484;2023-11-18T11:05:04;7.60;99.90
4187;DHT22;2107;52.306;10.484;2023-11-18T11:07:32;7.80;99.90
4187;DHT22;2107;52.306;10.484;2023-11-18T11:09:59;7.70;99.90
4187;DHT22;2107;52.306;10.484;2023-11-18T11:12:33;7.70;99.90
4187;DHT22;2107;52.306;10.484;2023-11-18T11:15:04;8.10;99.90
4187;DHT22;2107;52.306;10.484;2023-11-18T11:17:43;8.10;99.90
4187;DHT22;2107;52.306;10.484;2023-11-18T11:20:18;7.20;99.90
4187;DHT22;2107;52.306;10.484;2023-11-18T11:22:58;7.30;99.90
4187;DHT22;2107;52.306;10.484;2023-11-18T11:25:38;7.30;99.90
4187;DHT22;2107;52.306;10.484;2023-11-18T11:28:11;7.30;99.90
4187;DHT22;2107;52.306;10.484;2023-11-18T11:30:44;7.10;99.90
4187;DHT22;2107;52.306;10.484;2023-11-18T11:33:22;7.20;99.90
4187;DHT22;2107;52.306;10.484;2023-11-18T11:35:55;7.20;99.90
4187;DHT22;2107;52.306;10.484;2023-11-18T11:38:24;7.20;99.90
4187;DHT22;2107;52.306;10.484;2023-11-18T11:40:53;7.40;99.90
4187;DHT22;2107;52.306;10.484;2023-11-18T11:43:21;7.50;99.90
4187;DHT22;2107;52.306;10.484;2023-11-18T11:45:50;7.20;99.90
4187;DHT22;2107;52.306;10.484;2023-11-18T11:48:23;7.20;99.90
4187;DHT22;2107;52.306;10.484;2023-11-18T11:51:11;7.10;99.90
4187;DHT22;2107;52.306;10.484;2023-11-18T11:53:45;7.10;99.90
4187;DHT22;2107;52.306;10.484;2023-11-18T11:56:13;7.20;99.90
4187;DHT22;2107;52.306;10.484;2023-11-18T11:58:41;7.20;99.90
4187;DHT22;2107;52.306;10.484;2023-11-18T12:01:21;7.10;99.90
4187;DHT22;2107;52.306;10.484;2023-11-18T12:03:52;7.20;99.90
4187;DHT22;2107;52.306;10.484;2023-11-18T12:06:23;7.40;99.90
4187;DHT22;2107;52.306;10.484;2023-11-18T12:08:52;7.10;99.90
4187;DHT22;2107;52.306;10.484;2023-11-18T12:11:19;7.10;99.90
4187;DHT22;2107;52.306;10.484;2023-11-18T12:14:07;7.00;99.90
4187;DHT22;2107;52.306;10.484;2023-11-18T12:16:57;6.80;99.90
4187;DHT22;2107;52.306;10.484;2023-11-18T12:19:31;6.70;99.90
4187;DHT22;2107;52.306;10.484;2023-11-18T12:22:02;6.70;99.90
4187;DHT22;2107;52.306;10.484;2023-11-18T12:24:38;6.70;99.90
4187;DHT22;2107;52.306;10.484;2023-11-18T12:27:05;6.90;99.90
4187;DHT22;2107;52.306;10.484;2023-11-18T12:29:44;7.00;99.90
4187;DHT22;2107;52.306;10.484;2023-11-18T12:32:11;6.90;99.90
4187;DHT22;2107;52.306;10.484;2023-11-18T12:34:51;6.80;99.90
4187;DHT22;2107;52.306;10.484;2023-11-18T12:40:59;6.80;99.90
4187;DHT22;2107;52.306;10.484;2023-11-18T12:43:46;6.70;99.90
4187;DHT22;2107;52.306;10.484;2023-11-18T12:46:49;6.70;99.90
4187;DHT22;2107;52.306;10.484;2023-11-18T12:49:19;6.70;99.90
4187;DHT22;2107;52.306;10.484;2023-11-18T12:51:52;6.70;99.90
4187;DHT22;2107;52.306;10.484;2023-11-18T12:54:21;6.80;99.90
4187;DHT22;2107;52.306;10.484;2023-11-18T12:56:54;6.80;99.90
4187;DHT22;2107;52.306;10.484;2023-11-18T12:59:22;6.70;99.90
4187;DHT22;2107;52.306;10.484;2023-11-18T13:01:53;6.80;99.90
4187;DHT22;2107;52.306;10.484;2023-11-18T13:04:22;6.70;99.90
4187;DHT22;2107;52.306;10.484;2023-11-18T13:06:50;6.70;99.90
4187;DHT22;2107;52.306;10.484;2023-11-18T13:09:18;6.70;99.90
4187;DHT22;2107;52.306;10.484;2023-11-18T13:11:53;6.80;99.90
4187;DHT22;2107;52.306;10.484;2023-11-18T13:14:23;6.80;99.90
4187;DHT22;2107;52.306;10.484;2023-11-18T13:16:53;6.70;99.90
4187;DHT22;2107;52.306;10.484;2023-11-18T13:19:25;6.80;99.90
4187;DHT22;2107;52.306;10.484;2023-11-18T13:21:57;6.80;99.90
4187;DHT22;2107;52.306;10.484;2023-11-18T13:24:26;6.80;99.90
4187;DHT22;2107;52.306;10.484;2023-11-18T13:26:54;6.80;99.90
4187;DHT22;2107;52.306;10.484;2023-11-18T13:29:22;6.80;99.90
4187;DHT22;2107;52.306;10.484;2023-11-18T13:31:50;6.80;99.90
4187;DHT22;2107;52.306;10.484;2023-11-18T13:34:19;6.80;99.90
4187;DHT22;2107;52.306;10.484;2023-11-18T13:36:46;6.90;99.90
4187;DHT22;2107;52.306;10.484;2023-11-18T13:39:17;6.80;99.90
4187;DHT22;2107;52.306;10.484;2023-11-18T13:41:44;6.80;99.90
4187;DHT22;2107;52.306;10.484;2023-11-18T13:44:12;6.80;99.90
4187;DHT22;2107;52.306;10.484;2023-11-18T13:46:39;6.80;99.90
4187;DHT22;2107;52.306;10.484;2023-11-18T13:49:08;6.80;99.90
4187;DHT22;2107;52.306;10.484;2023-11-18T13:51:36;6.80;99.90
4187;DHT22;2107;52.306;10.484;2023-11-18T13:54:03;6.80;99.90
4187;DHT22;2107;52.306;10.484;2023-11-18T13:56:32;6.80;99.90
4187;DHT22;2107;52.306;10.484;2023-11-18T13:58:59;6.80;99.90
4187;DHT22;2107;52.306;10.484;2023-11-18T14:01:26;6.70;99.90
4187;DHT22;2107;52.306;10.484;2023-11-18T14:03:53;6.70;99.90
4187;DHT22;2107;52.306;10.484;2023-11-18T14:06:22;6.70;99.90
4187;DHT22;2107;52.306;10.484;2023-11-18T14:08:50;6.70;99.90
4187;DHT22;2107;52.306;10.484;2023-11-18T14:11:17;6.70;99.90
4187;DHT22;2107;52.306;10.484;2023-11-18T14:13:45;6.70;99.90
4187;DHT22;2107;52.306;10.484;2023-11-18T14:16:12;6.70;99.90
4187;DHT22;2107;52.306;10.484;2023-11-18T14:18:42;6.60;99.90
4187;DHT22;2107;52.306;10.484;2023-11-18T14:21:09;6.60;99.90
4187;DHT22;2107;52.306;10.484;2023-11-18T14:23:36;6.60;99.90
4187;DHT22;2107;52.306;10.484;2023-11-18T14:26:06;6.60;99.90
4187;DHT22;2107;52.306;10.484;2023-11-18T14:28:34;6.60;99.90
4187;DHT22;2107;52.306;10.484;2023-11-18T14:31:01;6.70;99.90
4187;DHT22;2107;52.306;10.484;2023-11-18T14:33:30;6.50;99.90
4187;DHT22;2107;52.306;10.484;2023-11-18T14:35:59;6.50;99.90
4187;DHT22;2107;52.306;10.484;2023-11-18T14:38:26;6.50;99.90
4187;DHT22;2107;52.306;10.484;2023-11-18T14:40:53;6.60;99.90
4187;DHT22;2107;52.306;10.484;2023-11-18T14:43:21;6.50;99.90
4187;DHT22;2107;52.306;10.484;2023-11-18T14:45:48;6.50;99.90
4187;DHT22;2107;52.306;10.484;2023-11-18T14:48:15;6.50;99.90
4187;DHT22;2107;52.306;10.484;2023-11-18T14:50:42;6.50;99.90
4187;DHT22;2107;52.306;10.484;2023-11-18T14:53:10;6.50;99.90
4187;DHT22;2107;52.306;10.484;2023-11-18T14:55:37;6.50;99.90
4187;DHT22;2107;52.306;10.484;2023-11-18T14:58:04;6.50;99.90
4187;DHT22;2107;52.306;10.484;2023-11-18T15:00:34;6.40;99.90
4187;DHT22;2107;52.306;10.484;2023-11-18T15:03:02;6.40;99.90
4187;DHT22;2107;52.306;10.484;2023-11-18T15:05:29;6.40;99.90
4187;DHT22;2107;52.306;10.484;2023-11-18T15:07:57;6.40;99.90
4187;DHT22;2107;52.306;10.484;2023-11-18T15:10:27;6.30;99.90
4187;DHT22;2107;52.306;10.484;2023-11-18T15:12:55;6.30;99.90
4187;DHT22;2107;52.306;10.484;2023-11-18T15:15:25;6.30;99.90
4187;DHT22;2107;52.306;10.484;2023-11-18T15:17:59;6.30;99.90
4187;DHT22;2107;52.306;10.484;2023-11-18T15:20:29;6.30;99.90
4187;DHT22;2107;52.306;10.484;2023-11-18T15:22:56;6.30;99.90
4187;DHT22;2107;52.306;10.484;2023-11-18T15:25:23;6.20;99.90
4187;DHT22;2107;52.306;10.484;2023-11-18T15:27:50;6.30;99.90
4187;DHT22;2107;52.306;10.484;2023-11-18T15:30:17;6.20;99.90
4187;DHT22;2107;52.306;10.484;2023-11-18T15:32:45;6.20;99.90
4187;DHT22;2107;52.306;10.484;2023-11-18T15:35:13;6.20;99.90
4187;DHT22;2107;52.306;10.484;2023-11-18T15:37:43;6.30;99.90
4187;DHT22;2107;52.306;10.484;2023-11-18T15:40:12;6.20;99.90
4187;DHT22;2107;52.306;10.484;2023-11-18T15:42:40;6.10;99.90
4187;DHT22;2107;52.306;10.484;2023-11-18T15:45:11;6.10;99.90
4187;DHT22;2107;52.306;10.484;2023-11-18T15:47:38;6.10;99.90
4187;DHT22;2107;52.306;10.484;2023-11-18T15:50:08;6.10;99.90
4187;DHT22;2107;52.306;10.484;2023-11-18T15:52:39;6.10;99.90
4187;DHT22;2107;52.306;10.484;2023-11-18T15:55:07;6.10;99.90
4187;DHT22;2107;52.306;10.484;2023-11-18T15:57:39;6.10;99.90
4187;DHT22;2107;52.306;10.484;2023-11-18T16:00:07;6.10;99.90
4187;DHT22;2107;52.306;10.484;2023-11-18T16:02:40;6.10;99.90
4187;DHT22;2107;52.306;10.484;2023-11-18T16:05:07;6.10;99.90
4187;DHT22;2107;52.306;10.484;2023-11-18T16:07:34;6.10;99.90
4187;DHT22;2107;52.306;10.484;2023-11-18T16:10:05;6.00;99.90
4187;DHT22;2107;52.306;10.484;2023-11-18T16:12:32;5.90;99.90
4187;DHT22;2107;52.306;10.484;2023-11-18T16:14:59;5.90;99.90
4187;DHT22;2107;52.306;10.484;2023-11-18T16:17:26;5.80;99.90